createdAt,value
2023-01-27T00:01:08.592Z,86.15
2023-01-27T00:03:35.670Z,86.31
2023-01-27T00:06:05.902Z,86.20
2023-01-27T00:08:32.705Z,86.16
2023-01-27T00:11:19.628Z,86.23
2023-01-27T00:13:46.569Z,86.25
2023-01-27T00:16:13.663Z,86.14
2023-01-27T00:18:40.645Z,86.13
2023-01-27T00:21:26.145Z,86.12
2023-01-27T00:24:11.684Z,86.12
2023-01-27T00:26:38.785Z,86.16
2023-01-27T00:29:05.617Z,86.23
2023-01-27T00:31:51.564Z,86.32
2023-01-27T00:34:18.761Z,86.41
2023-01-27T00:36:45.524Z,86.43
2023-01-27T00:39:14.192Z,86.46
2023-01-27T00:41:43.492Z,86.31
2023-01-27T00:44:12.591Z,86.22
2023-01-27T00:46:40.906Z,86.15
2023-01-27T00:49:09.368Z,86.07
2023-01-27T00:51:37.516Z,85.99
2023-01-27T00:54:04.874Z,86.01
2023-01-27T00:56:31.942Z,86.07
2023-01-27T00:58:58.699Z,86.08
2023-01-27T01:01:25.591Z,85.97
2023-01-27T01:03:52.713Z,86.00
2023-01-27T01:06:19.834Z,86.00
2023-01-27T01:08:48.230Z,85.91
2023-01-27T01:11:16.698Z,85.82
2023-01-27T01:13:44.940Z,85.77
2023-01-27T01:16:22.107Z,85.72
2023-01-27T01:18:49.206Z,85.72
2023-01-27T01:21:16.096Z,85.78
2023-01-27T01:23:45.420Z,85.56
2023-01-27T01:26:14.221Z,85.52
2023-01-27T01:28:41.129Z,85.66
2023-01-27T01:31:10.260Z,85.63
2023-01-27T01:33:37.190Z,85.69
2023-01-27T01:36:08.804Z,85.77
2023-01-27T01:38:36.432Z,85.69
2023-01-27T01:41:04.666Z,85.73
2023-01-27T01:43:31.636Z,85.79
2023-01-27T01:45:59.480Z,85.78
2023-01-27T01:48:49.529Z,85.72
2023-01-27T01:51:19.713Z,85.77
2023-01-27T01:53:53.628Z,85.79
2023-01-27T01:56:26.431Z,85.67
2023-01-27T01:58:54.992Z,85.50
2023-01-27T02:01:24.551Z,85.50
2023-01-27T02:03:54.611Z,85.44
2023-01-27T02:06:21.178Z,85.44
2023-01-27T02:08:48.702Z,85.47
2023-01-27T02:11:15.762Z,85.47
2023-01-27T02:13:42.711Z,85.38
2023-01-27T02:23:57.235Z,85.25
2023-01-27T02:26:32.674Z,85.28
2023-01-27T02:29:06.353Z,85.29
2023-01-27T02:31:34.954Z,85.36
2023-01-27T02:34:09.333Z,85.07
2023-01-27T02:36:58.218Z,85.11
2023-01-27T02:39:31.501Z,85.11
2023-01-27T02:41:59.578Z,85.00
2023-01-27T02:44:27.889Z,84.97
2023-01-27T02:46:56.558Z,85.05
2023-01-27T02:49:25.125Z,85.09
2023-01-27T02:51:53.523Z,84.92
2023-01-27T02:54:25.266Z,84.93
2023-01-27T02:56:53.576Z,84.81
2023-01-27T02:59:24.495Z,84.95
2023-01-27T03:01:53.056Z,84.82
2023-01-27T03:04:21.385Z,84.93
2023-01-27T03:06:49.939Z,84.97
2023-01-27T03:09:18.939Z,84.96
2023-01-27T03:12:06.365Z,84.95
2023-01-27T03:14:55.228Z,84.92
2023-01-27T03:17:42.134Z,84.90
2023-01-27T03:20:11.482Z,84.94
2023-01-27T03:22:39.620Z,84.91
2023-01-27T03:25:08.920Z,84.90
2023-01-27T03:27:37.209Z,84.93
2023-01-27T03:30:38.159Z,84.82
2023-01-27T03:33:15.615Z,84.72
2023-01-27T03:36:23.551Z,84.89
2023-01-27T03:39:11.362Z,84.88
2023-01-27T03:41:58.285Z,84.99
2023-01-27T03:44:46.524Z,84.99
2023-01-27T03:47:14.651Z,84.96
2023-01-27T03:49:42.945Z,84.88
2023-01-27T03:52:11.067Z,84.80
2023-01-27T03:54:39.777Z,84.66
2023-01-27T03:57:08.445Z,84.75
2023-01-27T03:59:37.910Z,84.68
2023-01-27T04:02:25.292Z,84.83
2023-01-27T04:05:13.033Z,84.81
2023-01-27T04:07:43.867Z,84.88
2023-01-27T04:10:12.020Z,84.87
2023-01-27T04:12:41.235Z,84.91
2023-01-27T04:15:09.812Z,84.86
2023-01-27T04:17:42.153Z,84.73
2023-01-27T04:20:11.566Z,84.76
2023-01-27T04:22:40.343Z,84.63
2023-01-27T04:25:11.633Z,84.77
2023-01-27T04:27:43.584Z,84.78
2023-01-27T04:30:12.345Z,84.62
2023-01-27T04:32:40.455Z,84.66
2023-01-27T04:35:08.996Z,84.56
2023-01-27T04:37:37.786Z,84.47
2023-01-27T04:40:07.322Z,84.42
2023-01-27T04:42:35.566Z,84.50
2023-01-27T04:45:04.504Z,84.51
2023-01-27T04:47:33.250Z,84.38
2023-01-27T04:50:01.405Z,84.53
2023-01-27T04:52:29.902Z,84.33
2023-01-27T04:54:58.285Z,84.28
2023-01-27T04:57:28.144Z,84.17
2023-01-27T04:59:56.581Z,84.06
2023-01-27T06:08:35.027Z,84.14
2023-01-27T06:11:01.867Z,84.29
2023-01-27T06:13:29.063Z,84.21
2023-01-27T06:15:56.137Z,84.06
2023-01-27T06:18:23.471Z,84.15
2023-01-27T06:20:50.216Z,84.20
2023-01-27T06:23:17.771Z,84.05
2023-01-27T06:25:46.061Z,84.07
2023-01-27T06:28:27.153Z,84.15
2023-01-27T06:30:56.655Z,84.09
2023-01-27T06:33:23.699Z,83.88
2023-01-27T06:36:00.821Z,84.08
2023-01-27T06:38:27.459Z,83.90
2023-01-27T06:40:56.456Z,84.04
2023-01-27T06:43:24.348Z,83.92
2023-01-27T06:45:51.571Z,83.77
2023-01-27T06:48:18.636Z,83.84
2023-01-27T06:50:45.315Z,83.75
2023-01-27T06:53:12.107Z,83.72
2023-01-27T06:55:41.077Z,83.92
2023-01-27T06:58:09.089Z,83.77
2023-01-27T07:00:38.774Z,83.76
2023-01-27T07:03:05.907Z,83.68
2023-01-27T07:05:33.155Z,83.63
2023-01-27T07:07:59.986Z,83.77
2023-01-27T07:10:26.923Z,83.71
2023-01-27T07:13:04.395Z,83.59
2023-01-27T07:15:31.593Z,83.48
2023-01-27T07:17:59.861Z,83.40
2023-01-27T07:20:28.238Z,83.60
2023-01-27T07:23:03.167Z,83.59
2023-01-27T07:25:33.608Z,83.43
2023-01-27T07:28:00.742Z,83.52
2023-01-27T07:30:34.916Z,83.44
2023-01-27T07:33:08.988Z,83.49
2023-01-27T07:35:36.623Z,83.41
2023-01-27T07:38:04.044Z,83.23
2023-01-27T07:40:30.715Z,83.09
2023-01-27T07:42:58.766Z,83.15
2023-01-27T07:45:27.496Z,83.10
2023-01-27T07:48:00.387Z,82.97
2023-01-27T07:50:27.176Z,82.99
2023-01-27T07:52:53.798Z,82.84
2023-01-27T07:55:20.382Z,82.77
2023-01-27T07:57:47.095Z,82.72
2023-01-27T08:00:15.141Z,82.73
2023-01-27T08:02:43.043Z,82.85
2023-01-27T08:05:09.651Z,82.70
2023-01-27T08:07:36.834Z,82.67
2023-01-27T08:10:04.027Z,82.49
2023-01-27T08:12:31.192Z,82.41
2023-01-27T08:14:58.820Z,82.43
2023-01-27T08:17:28.717Z,82.36
2023-01-27T08:19:55.782Z,82.24
2023-01-27T08:22:24.571Z,82.18
2023-01-27T08:24:51.464Z,82.02
2023-01-27T08:27:18.361Z,81.99
2023-01-27T08:29:45.026Z,81.98
2023-01-27T08:32:14.173Z,81.99
2023-01-27T08:34:42.737Z,81.86
2023-01-27T08:37:09.368Z,81.80
2023-01-27T08:39:36.820Z,81.59
2023-01-27T08:42:04.438Z,81.72
2023-01-27T08:44:31.299Z,81.49
2023-01-27T08:46:57.942Z,81.51
2023-01-27T08:49:24.980Z,81.19
2023-01-27T08:51:51.708Z,81.07
2023-01-27T08:54:18.441Z,80.96
2023-01-27T08:56:45.039Z,80.62
2023-01-27T08:59:11.664Z,80.56
2023-01-27T09:01:38.873Z,80.41
2023-01-27T09:04:10.390Z,80.42
2023-01-27T09:06:38.644Z,80.09
2023-01-27T09:09:10.971Z,79.90
2023-01-27T09:11:47.633Z,79.84
2023-01-27T09:14:14.573Z,79.68
2023-01-27T09:16:41.252Z,79.43
2023-01-27T09:19:08.229Z,79.23
2023-01-27T09:21:35.229Z,79.14
2023-01-27T09:24:02.057Z,78.87
2023-01-27T09:26:29.762Z,78.60
2023-01-27T09:28:56.710Z,78.48
2023-01-27T09:31:25.790Z,78.27
2023-01-27T09:33:52.496Z,78.31
2023-01-27T09:36:20.745Z,78.07
2023-01-27T09:38:55.712Z,77.90
2023-01-27T09:41:59.975Z,77.28
2023-01-27T09:44:38.954Z,77.03
2023-01-27T09:47:15.915Z,76.94
2023-01-27T09:50:09.331Z,76.82
2023-01-27T09:52:57.610Z,76.77
2023-01-27T09:55:45.036Z,76.41
2023-01-27T09:58:24.775Z,75.99
2023-01-27T12:12:32.793Z,69.24
2023-01-27T12:15:02.546Z,69.33
2023-01-27T12:17:35.590Z,69.35
2023-01-27T12:20:06.347Z,69.38
2023-01-27T12:22:38.639Z,69.40
2023-01-27T12:25:07.733Z,69.39
2023-01-27T12:27:40.561Z,69.39
2023-01-27T12:30:16.066Z,69.31
2023-01-27T12:32:47.161Z,69.40
2023-01-27T12:35:33.776Z,69.41
2023-01-27T12:38:26.698Z,69.48
2023-01-27T12:40:59.440Z,69.47
2023-01-27T12:43:26.171Z,69.32
2023-01-27T12:46:28.575Z,69.37
2023-01-27T12:49:07.573Z,69.47
2023-01-27T12:51:40.471Z,69.52
2023-01-27T12:54:21.298Z,69.53
2023-01-27T12:56:52.494Z,69.59
2023-01-27T12:59:20.965Z,69.75
2023-01-27T13:02:18.567Z,69.58
2023-01-27T13:04:53.841Z,69.95
2023-01-27T13:07:24.686Z,69.71
2023-01-27T13:10:03.368Z,69.69
2023-01-27T13:12:34.907Z,69.88
2023-01-27T13:15:21.235Z,70.07
2023-01-27T13:17:55.225Z,69.92
2023-01-27T13:20:26.041Z,70.12
2023-01-27T13:22:53.906Z,70.14
2023-01-27T13:25:22.987Z,70.13
2023-01-27T13:27:53.024Z,70.38
2023-01-27T13:30:26.862Z,70.27
2023-01-27T13:32:55.528Z,70.44
2023-01-27T13:35:37.679Z,70.43
2023-01-27T13:38:13.688Z,70.53
2023-01-27T13:40:45.159Z,70.64
2023-01-27T13:43:19.995Z,70.83
2023-01-27T13:46:20.972Z,70.79
2023-01-27T13:48:54.530Z,70.83
2023-01-27T13:51:24.355Z,70.96
2023-01-27T13:54:03.655Z,70.98
2023-01-27T13:56:41.728Z,71.12
2023-01-27T13:59:08.372Z,71.31
2023-01-27T14:02:08.060Z,71.20
2023-01-27T14:04:37.321Z,71.52
2023-01-27T14:07:07.946Z,71.55
2023-01-27T14:09:50.206Z,71.73
2023-01-27T14:12:21.715Z,72.01
2023-01-27T14:14:58.209Z,72.03
2023-01-27T14:17:34.989Z,72.03
2023-01-27T14:20:04.947Z,72.29
2023-01-27T14:22:34.655Z,72.49
2023-01-27T14:25:07.987Z,72.30
2023-01-27T14:27:37.155Z,72.61
2023-01-27T14:30:04.149Z,72.69
2023-01-27T14:32:31.072Z,72.86
2023-01-27T14:34:57.688Z,72.91
2023-01-27T14:37:27.947Z,73.25
2023-01-27T14:40:00.317Z,73.18
2023-01-27T14:42:26.866Z,73.55
2023-01-27T14:45:15.950Z,73.61
2023-01-27T14:47:45.693Z,73.87
2023-01-27T14:50:21.589Z,74.03
2023-01-27T14:52:51.298Z,74.17
2023-01-27T14:55:18.129Z,74.40
2023-01-27T14:57:47.247Z,74.55
2023-01-27T15:00:20.642Z,74.59
2023-01-27T15:03:01.439Z,74.69
2023-01-27T15:05:37.677Z,74.78
2023-01-27T15:08:16.905Z,75.14
2023-01-27T15:10:51.271Z,75.42
2023-01-27T15:13:50.510Z,75.44
2023-01-27T15:16:19.536Z,75.71
2023-01-27T15:18:53.734Z,75.80
2023-01-27T15:21:32.428Z,76.04
2023-01-27T15:24:17.986Z,76.15
2023-01-27T15:26:45.338Z,76.18
2023-01-27T15:29:14.888Z,76.29
2023-01-27T15:31:42.664Z,76.56
2023-01-27T15:34:19.511Z,76.50
2023-01-27T15:37:02.501Z,76.68
2023-01-27T15:39:41.004Z,76.85
2023-01-27T15:42:12.319Z,77.03
2023-01-27T15:44:40.289Z,77.17
2023-01-27T15:47:11.470Z,77.26
2023-01-27T15:49:42.466Z,77.46
2023-01-27T15:52:12.030Z,77.56
2023-01-27T15:54:39.693Z,77.60
2023-01-27T15:57:06.289Z,77.78
2023-01-27T15:59:49.851Z,77.85
2023-01-27T16:02:27.371Z,77.97
2023-01-27T18:15:33.326Z,82.76
2023-01-27T18:18:01.233Z,82.70
2023-01-27T18:20:32.034Z,82.83
2023-01-27T18:22:58.796Z,82.88
2023-01-27T18:25:25.382Z,82.90
2023-01-27T18:27:53.306Z,83.13
2023-01-27T18:30:20.952Z,83.14
2023-01-27T18:32:53.297Z,83.30
2023-01-27T18:35:25.780Z,83.20
2023-01-27T18:37:57.848Z,83.42
2023-01-27T18:40:35.002Z,83.45
2023-01-27T18:43:03.499Z,83.73
2023-01-27T18:45:30.257Z,83.82
2023-01-27T18:47:57.158Z,84.04
2023-01-27T18:50:25.029Z,84.10
2023-01-27T18:52:51.961Z,84.12
2023-01-27T18:55:22.484Z,84.26
2023-01-27T18:57:53.646Z,84.36
2023-01-27T19:00:38.585Z,84.38
2023-01-27T19:03:07.205Z,84.42
2023-01-27T19:05:35.714Z,84.37
2023-01-27T19:08:02.949Z,84.43
2023-01-27T19:10:31.968Z,84.48
2023-01-27T19:13:00.110Z,84.42
2023-01-27T19:15:28.443Z,84.41
2023-01-27T19:17:56.504Z,84.46
2023-01-27T19:20:25.144Z,84.47
2023-01-27T19:22:52.773Z,84.42
2023-01-27T19:25:20.142Z,84.54
2023-01-27T19:27:49.795Z,84.28
2023-01-27T19:30:19.534Z,84.30
2023-01-27T19:32:46.067Z,84.23
2023-01-27T19:35:13.485Z,84.28
2023-01-27T19:37:41.868Z,84.25
2023-01-27T19:40:16.116Z,84.10
2023-01-27T19:42:43.895Z,84.17
2023-01-27T19:45:16.210Z,84.11
2023-01-27T19:47:46.270Z,84.15
2023-01-27T19:50:18.851Z,84.07
2023-01-27T19:52:46.123Z,84.00
2023-01-27T19:55:14.534Z,84.00
2023-01-27T19:57:42.527Z,84.01
2023-01-27T20:00:23.740Z,83.88
2023-01-27T20:02:50.402Z,83.91
2023-01-27T20:05:17.359Z,83.79
2023-01-27T20:07:44.524Z,83.76
2023-01-27T20:10:32.089Z,83.67
2023-01-27T20:13:00.468Z,83.71
2023-01-27T20:15:29.281Z,83.71
2023-01-27T20:17:56.714Z,83.62
2023-01-27T20:20:24.338Z,83.66
2023-01-27T20:22:52.222Z,83.63
2023-01-27T20:25:20.590Z,83.59
2023-01-27T20:27:49.602Z,83.65
2023-01-27T20:30:17.943Z,83.63
2023-01-27T20:32:45.166Z,83.57
2023-01-27T20:35:13.145Z,83.46
2023-01-27T20:37:41.000Z,83.46
2023-01-27T20:40:09.232Z,83.42
2023-01-27T20:42:38.618Z,83.47
2023-01-27T20:45:05.662Z,83.37
2023-01-27T20:47:32.621Z,83.39
2023-01-27T20:50:00.727Z,83.40
2023-01-27T20:52:27.824Z,83.31
2023-01-27T20:54:54.477Z,83.31
2023-01-27T20:57:23.469Z,83.23
2023-01-27T20:59:50.371Z,83.27
2023-01-27T21:02:17.063Z,83.30
2023-01-27T21:04:44.059Z,83.24
2023-01-27T21:07:10.860Z,83.23
2023-01-27T21:09:37.536Z,83.10
2023-01-27T21:12:04.403Z,83.17
2023-01-27T21:14:33.437Z,83.10
2023-01-27T21:17:00.292Z,83.10
2023-01-27T21:19:26.950Z,83.13
2023-01-27T21:21:53.734Z,83.02
2023-01-27T21:24:20.445Z,83.04
2023-01-27T21:26:47.363Z,82.99
2023-01-27T21:29:14.162Z,83.13
2023-01-27T21:31:41.238Z,83.02
2023-01-27T21:34:10.328Z,83.00
2023-01-27T21:36:37.276Z,82.86
2023-01-27T21:39:04.476Z,83.07
2023-01-27T21:41:50.330Z,82.95
2023-01-27T21:44:40.303Z,82.98
2023-01-27T21:47:08.680Z,82.78
2023-01-27T21:49:56.944Z,82.72
2023-01-27T21:52:25.123Z,82.76
2023-01-27T21:54:51.990Z,82.91
2023-01-27T21:57:18.652Z,82.91
2023-01-27T21:59:45.397Z,82.99
2023-01-27T22:02:15.553Z,82.95
2023-01-27T22:04:42.643Z,83.01
2023-01-27T22:07:10.837Z,83.22
2023-01-27T22:09:38.240Z,83.06
2023-01-27T22:12:05.926Z,83.16
2023-01-27T22:14:33.576Z,83.19
2023-01-27T22:17:00.427Z,83.11
2023-01-27T22:19:27.252Z,83.06
2023-01-27T22:21:54.776Z,82.95
2023-01-27T22:24:24.715Z,83.13
2023-01-27T22:26:51.364Z,83.22
2023-01-27T22:29:18.275Z,82.96
2023-01-27T22:31:44.824Z,83.00
2023-01-27T22:34:11.605Z,83.15
2023-01-27T22:36:38.390Z,83.06
2023-01-27T22:39:04.983Z,83.19
2023-01-27T22:41:32.518Z,83.13
2023-01-27T22:43:59.363Z,83.10
2023-01-27T22:46:26.119Z,83.21
2023-01-27T22:48:54.991Z,83.21
2023-01-27T22:51:21.863Z,83.43
2023-01-27T22:53:48.533Z,83.29
2023-01-27T22:56:15.922Z,83.19
2023-01-27T22:58:42.673Z,83.23
2023-01-27T23:01:09.392Z,83.60
2023-01-27T23:03:36.085Z,83.38
2023-01-27T23:06:04.498Z,83.06
2023-01-27T23:08:32.769Z,83.50
2023-01-27T23:11:00.932Z,83.29
2023-01-27T23:13:28.978Z,83.52
2023-01-27T23:15:56.391Z,83.56
2023-01-27T23:18:23.830Z,83.33
2023-01-27T23:20:50.653Z,83.35
2023-01-27T23:23:18.691Z,83.31
2023-01-27T23:25:46.941Z,83.33
2023-01-27T23:28:17.137Z,83.30
2023-01-27T23:30:47.572Z,83.33
2023-01-27T23:33:16.697Z,83.33
2023-01-27T23:35:43.551Z,83.48
2023-01-27T23:38:22.711Z,83.42
2023-01-27T23:40:53.955Z,83.54
2023-01-27T23:43:21.724Z,83.48
2023-01-27T23:45:52.186Z,83.60
2023-01-27T23:48:19.545Z,83.57
2023-01-27T23:50:46.283Z,83.61
2023-01-27T23:53:13.251Z,83.62
2023-01-27T23:55:39.849Z,83.61
2023-01-27T23:58:06.674Z,83.60
